createdAt,value
2019-05-12T00:02:51.036Z,4.20
2019-05-12T00:06:59.279Z,4.27
2019-05-12T00:11:08.989Z,5.13
2019-05-12T00:15:19.278Z,6.10
2019-05-12T00:19:28.585Z,5.60
2019-05-12T00:23:58.062Z,4.17
2019-05-12T00:28:05.158Z,4.63
2019-05-12T00:32:13.769Z,4.07
2019-05-12T00:36:22.402Z,3.83
2019-05-12T00:40:30.247Z,4.00
2019-05-12T00:44:39.169Z,6.33
2019-05-12T00:48:48.345Z,6.47
2019-05-12T00:52:57.954Z,7.17
2019-05-12T00:57:07.678Z,6.50
2019-05-12T01:01:18.272Z,5.97
2019-05-12T01:05:25.610Z,5.90
2019-05-12T01:09:33.879Z,7.00
2019-05-12T01:13:41.502Z,8.23
2019-05-12T01:17:49.621Z,7.30
2019-05-12T01:21:58.711Z,8.57
2019-05-12T01:26:08.844Z,8.33
2019-05-12T01:30:18.035Z,7.63
2019-05-12T01:34:27.801Z,7.13
2019-05-12T01:38:37.798Z,7.03
2019-05-12T01:42:45.374Z,7.50
2019-05-12T01:46:53.797Z,6.30
2019-05-12T01:51:01.424Z,5.80
2019-05-12T01:55:10.036Z,6.00
2019-05-12T01:59:18.574Z,6.40
2019-05-12T02:03:28.193Z,5.23
2019-05-12T02:07:40.376Z,4.83
2019-05-12T02:11:48.573Z,4.37
2019-05-12T02:15:57.872Z,4.87
2019-05-12T02:20:07.870Z,4.50
2019-05-12T02:24:24.342Z,3.90
2019-05-12T02:28:25.199Z,3.70
2019-05-12T02:32:47.230Z,3.77
2019-05-12T02:36:44.799Z,3.83
2019-05-12T02:40:55.396Z,4.07
2019-05-12T02:45:05.527Z,3.87
2019-05-12T02:49:14.648Z,3.33
2019-05-12T02:53:24.793Z,3.80
2019-05-12T02:57:34.342Z,3.90
2019-05-12T03:01:45.246Z,3.57
2019-05-12T03:05:55.090Z,3.50
2019-05-12T03:10:05.140Z,3.77
2019-05-12T03:14:15.693Z,3.70
2019-05-12T03:18:25.131Z,3.87
2019-05-12T03:22:35.281Z,4.17
2019-05-12T03:26:45.006Z,3.83
2019-05-12T03:30:57.766Z,5.00
2019-05-12T03:35:08.164Z,4.50
2019-05-12T03:39:15.021Z,4.73
2019-05-12T03:43:24.452Z,4.53
2019-05-12T03:47:35.582Z,4.20
2019-05-12T03:51:45.239Z,4.17
2019-05-12T03:55:55.067Z,4.47
2019-05-12T04:00:04.950Z,5.00
2019-05-12T04:04:11.334Z,5.90
2019-05-12T04:08:19.273Z,7.10
2019-05-12T04:12:26.979Z,8.50
2019-05-12T04:16:36.425Z,10.47
2019-05-12T04:20:45.510Z,10.13
2019-05-12T04:24:55.130Z,6.57
2019-05-12T04:29:05.061Z,4.33
2019-05-12T04:33:15.494Z,4.83
2019-05-12T04:37:24.909Z,8.80
2019-05-12T04:41:35.436Z,9.97
2019-05-12T04:45:45.055Z,9.30
2019-05-12T04:49:54.593Z,8.60
2019-05-12T04:54:05.375Z,9.10
2019-05-12T04:58:15.620Z,9.93
2019-05-12T05:02:25.017Z,8.90
2019-05-12T05:06:34.011Z,9.47
2019-05-12T05:10:40.567Z,8.97
2019-05-12T05:14:48.486Z,8.97
2019-05-12T05:18:56.738Z,8.67
2019-05-12T05:23:04.996Z,8.60
2019-05-12T05:27:13.319Z,9.20
2019-05-12T05:31:21.484Z,9.20
2019-05-12T05:35:35.137Z,8.53
2019-05-12T05:39:47.960Z,8.40
2019-05-12T05:43:52.954Z,9.83
2019-05-12T05:47:59.676Z,9.57
2019-05-12T05:52:07.549Z,9.13
2019-05-12T05:56:18.207Z,9.97
2019-05-12T06:00:26.335Z,10.63
2019-05-12T06:04:34.453Z,12.47
2019-05-12T06:08:47.038Z,13.47
2019-05-12T06:12:54.761Z,11.70
2019-05-12T06:17:04.344Z,10.27
2019-05-12T06:21:13.697Z,10.03
2019-05-12T06:25:21.558Z,9.27
2019-05-12T06:29:29.582Z,9.20
2019-05-12T06:33:39.032Z,8.77
2019-05-12T06:37:57.372Z,8.23
2019-05-12T06:42:01.930Z,9.87
2019-05-12T06:46:06.711Z,7.23
2019-05-12T06:50:14.765Z,4.30
2019-05-12T06:54:24.709Z,3.40
2019-05-12T06:58:34.369Z,3.60
2019-05-12T07:02:50.041Z,2.97
2019-05-12T07:06:56.185Z,3.00
2019-05-12T07:11:05.941Z,2.63
2019-05-12T07:15:14.271Z,1.80
2019-05-12T07:19:23.373Z,1.80
2019-05-12T07:23:33.682Z,1.83
2019-05-12T07:27:47.304Z,2.27
2019-05-12T07:31:53.663Z,1.53
2019-05-12T07:36:06.454Z,1.60
2019-05-12T07:40:13.717Z,2.10
2019-05-12T07:44:25.315Z,2.30
2019-05-12T07:48:33.505Z,2.10
2019-05-12T07:52:44.163Z,1.98
2019-05-12T07:56:53.968Z,3.00
2019-05-12T08:01:02.706Z,2.05
2019-05-12T08:05:19.551Z,1.90
2019-05-12T08:09:24.147Z,2.30
2019-05-12T08:13:35.993Z,2.55
2019-05-12T08:17:40.539Z,2.00
2019-05-12T08:21:49.173Z,2.00
2019-05-12T08:25:57.809Z,3.35
2019-05-12T08:30:06.911Z,2.95
2019-05-12T08:34:14.842Z,1.92
2019-05-12T08:38:24.886Z,2.85
2019-05-12T08:42:34.421Z,3.33
2019-05-12T08:46:51.910Z,5.30
2019-05-12T08:50:54.494Z,2.20
2019-05-12T08:55:04.306Z,2.10
2019-05-12T08:59:17.582Z,1.98
2019-05-12T09:03:27.189Z,2.02
2019-05-12T09:07:35.807Z,2.15
2019-05-12T09:11:41.109Z,1.90
2019-05-12T09:15:48.654Z,1.60
2019-05-12T09:20:03.661Z,1.95
2019-05-12T09:24:06.087Z,2.10
2019-05-12T09:28:13.985Z,1.72
2019-05-12T09:32:23.511Z,1.80
2019-05-12T09:36:33.927Z,2.02
2019-05-12T09:40:43.547Z,2.10
2019-05-12T09:44:50.900Z,1.87
2019-05-12T09:48:58.850Z,2.45
2019-05-12T09:53:11.503Z,2.08
2019-05-12T09:57:17.108Z,1.80
2019-05-12T10:01:29.260Z,1.90
2019-05-12T10:05:41.144Z,1.70
2019-05-12T10:09:49.256Z,1.67
2019-05-12T10:14:00.119Z,1.60
2019-05-12T10:18:10.877Z,2.05
2019-05-12T10:22:14.382Z,1.90
2019-05-12T10:26:22.175Z,2.30
2019-05-12T10:30:30.364Z,1.75
2019-05-12T10:34:40.447Z,2.25
2019-05-12T10:38:48.477Z,2.20
2019-05-12T10:42:57.052Z,2.33
2019-05-12T10:47:05.664Z,2.08
2019-05-12T10:51:13.543Z,2.45
2019-05-12T10:55:23.910Z,1.90
2019-05-12T10:59:33.420Z,2.27
2019-05-12T11:03:43.049Z,2.17
2019-05-12T11:07:53.862Z,2.58
2019-05-12T11:12:03.243Z,2.33
2019-05-12T11:16:10.534Z,2.20
2019-05-12T11:20:18.338Z,2.20
2019-05-12T11:24:26.371Z,2.12
2019-05-12T11:28:34.356Z,2.20
2019-05-12T11:32:44.141Z,1.98
2019-05-12T11:36:54.337Z,2.33
2019-05-12T11:41:01.623Z,2.40
2019-05-12T11:45:09.658Z,2.30
2019-05-12T11:49:21.726Z,2.00
2019-05-12T11:53:31.151Z,2.15
2019-05-12T11:57:37.679Z,1.87
2019-05-12T12:01:49.767Z,2.27
2019-05-12T12:06:05.563Z,2.50
2019-05-12T12:10:14.215Z,1.98
2019-05-12T12:14:23.869Z,1.82
2019-05-12T12:18:47.945Z,2.27
2019-05-12T12:22:50.860Z,2.27
2019-05-12T12:26:58.924Z,2.00
2019-05-12T12:31:07.829Z,2.98
2019-05-12T12:35:16.018Z,1.90
2019-05-12T12:39:23.851Z,2.30
2019-05-12T12:43:31.914Z,2.10
2019-05-12T12:47:44.372Z,2.10
2019-05-12T12:51:48.818Z,2.33
2019-05-12T12:55:58.762Z,1.75
2019-05-12T13:00:07.294Z,2.20
2019-05-12T13:04:14.652Z,2.30
2019-05-12T13:08:24.772Z,2.53
2019-05-12T13:12:35.624Z,2.57
2019-05-12T13:16:43.697Z,2.97
2019-05-12T13:20:53.826Z,2.70
2019-05-12T13:25:04.585Z,2.70
2019-05-12T13:29:09.752Z,2.27
2019-05-12T13:33:18.441Z,2.37
2019-05-12T13:37:26.228Z,2.70
2019-05-12T13:41:34.322Z,2.40
2019-05-12T13:45:43.966Z,2.00
2019-05-12T13:49:51.358Z,2.40
2019-05-12T13:53:59.539Z,2.67
2019-05-12T13:58:07.328Z,2.77
2019-05-12T14:02:22.057Z,2.67
2019-05-12T14:06:32.053Z,2.17
2019-05-12T14:10:37.389Z,2.63
2019-05-12T14:14:43.779Z,2.93
2019-05-12T14:18:57.042Z,2.87
2019-05-12T14:23:01.143Z,2.63
2019-05-12T14:27:09.315Z,2.47
2019-05-12T14:31:26.601Z,2.30
2019-05-12T14:35:26.397Z,2.40
2019-05-12T14:39:40.116Z,2.20
2019-05-12T14:43:47.864Z,2.50
2019-05-12T14:48:00.003Z,3.03
2019-05-12T14:52:04.754Z,2.87
2019-05-12T14:56:14.085Z,2.10
2019-05-12T15:00:24.076Z,2.60
2019-05-12T15:04:31.328Z,2.50
2019-05-12T15:08:40.327Z,2.50
2019-05-12T15:12:48.118Z,2.00
2019-05-12T15:16:55.844Z,2.40
2019-05-12T15:21:05.359Z,2.60
2019-05-12T15:25:19.137Z,2.50
2019-05-12T15:29:27.961Z,2.07
2019-05-12T15:33:35.371Z,2.50
2019-05-12T15:37:43.862Z,2.30
2019-05-12T15:41:56.508Z,3.00
2019-05-12T15:46:01.811Z,2.80
2019-05-12T15:50:11.219Z,2.23
2019-05-12T15:54:19.025Z,2.30
2019-05-12T15:58:26.681Z,2.60
2019-05-12T16:02:34.581Z,2.60
2019-05-12T16:06:52.971Z,2.77
2019-05-12T16:10:53.537Z,2.90
2019-05-12T16:15:04.562Z,2.30
2019-05-12T16:19:11.656Z,3.47
2019-05-12T16:23:28.041Z,3.20
2019-05-12T16:27:35.625Z,2.60
2019-05-12T16:31:45.631Z,2.77
2019-05-12T16:35:49.931Z,3.00
2019-05-12T16:39:57.728Z,4.23
2019-05-12T16:44:07.916Z,2.70
2019-05-12T16:48:29.282Z,2.97
2019-05-12T16:52:24.572Z,3.07
2019-05-12T16:56:33.937Z,3.27
2019-05-12T17:00:45.149Z,3.43
2019-05-12T17:04:53.953Z,3.10
2019-05-12T17:09:03.366Z,3.20
2019-05-12T17:13:13.841Z,4.60
2019-05-12T17:17:21.408Z,5.17
2019-05-12T17:21:29.638Z,4.53
2019-05-12T17:25:37.369Z,18.53
2019-05-12T17:29:45.171Z,5.83
2019-05-12T17:33:54.354Z,5.20
2019-05-12T17:38:04.301Z,4.20
2019-05-12T17:42:20.889Z,4.13
2019-05-12T17:46:23.334Z,4.27
2019-05-12T17:50:31.172Z,4.73
2019-05-12T17:54:39.103Z,3.27
2019-05-12T17:58:47.659Z,3.40
2019-05-12T18:03:14.160Z,3.47
2019-05-12T18:07:13.314Z,4.00
2019-05-12T18:11:16.059Z,3.73
2019-05-12T18:15:32.497Z,4.10
2019-05-12T18:19:33.820Z,3.43
2019-05-12T18:23:43.470Z,3.50
2019-05-12T18:27:51.102Z,3.70
2019-05-12T18:31:58.979Z,4.37
2019-05-12T18:36:06.379Z,3.73
2019-05-12T18:40:14.851Z,3.90
2019-05-12T18:44:28.984Z,3.80
2019-05-12T18:48:34.277Z,4.17
2019-05-12T18:52:43.653Z,4.80
2019-05-12T18:56:52.472Z,4.13
2019-05-12T19:01:00.443Z,3.90
2019-05-12T19:05:12.930Z,4.17
2019-05-12T19:09:18.711Z,4.63
2019-05-12T19:13:27.027Z,5.10
2019-05-12T19:17:35.059Z,5.00
2019-05-12T19:21:43.818Z,5.20
2019-05-12T19:25:54.177Z,4.43
2019-05-12T19:30:04.286Z,4.87
2019-05-12T19:34:20.045Z,4.90
2019-05-12T19:38:23.937Z,4.60
2019-05-12T19:42:31.395Z,4.90
2019-05-12T19:46:39.765Z,4.63
2019-05-12T19:50:54.977Z,4.37
2019-05-12T19:54:58.532Z,4.57
2019-05-12T19:59:06.379Z,4.50
2019-05-12T20:03:14.487Z,4.83
2019-05-12T20:07:23.379Z,5.00
2019-05-12T20:11:32.160Z,4.10
2019-05-12T20:15:43.177Z,4.73
2019-05-12T20:19:49.930Z,4.17
2019-05-12T20:23:58.028Z,4.40
2019-05-12T20:28:11.300Z,4.20
2019-05-12T20:32:16.327Z,3.60
2019-05-12T20:36:25.927Z,3.50
2019-05-12T20:40:37.558Z,4.07
2019-05-12T20:44:45.176Z,3.90
2019-05-12T20:48:53.943Z,3.20
2019-05-12T20:53:03.902Z,3.70
2019-05-12T20:57:14.037Z,3.30
2019-05-12T21:01:26.639Z,3.37
2019-05-12T21:05:34.336Z,3.50
2019-05-12T21:09:44.145Z,3.80
2019-05-12T21:13:54.575Z,3.57
2019-05-12T21:18:07.241Z,3.87
2019-05-12T21:22:14.237Z,3.87
2019-05-12T21:26:22.812Z,3.97
2019-05-12T21:30:42.328Z,3.80
2019-05-12T21:34:52.380Z,3.60
2019-05-12T21:38:59.515Z,3.90
2019-05-12T21:43:08.064Z,3.97
2019-05-12T21:47:15.876Z,4.87
2019-05-12T21:51:24.132Z,4.63
2019-05-12T21:55:34.003Z,4.60
2019-05-12T21:59:41.941Z,5.10
2019-05-12T22:03:57.872Z,4.37
2019-05-12T22:08:00.394Z,4.37
2019-05-12T22:12:08.701Z,4.67
2019-05-12T22:16:16.288Z,5.17
2019-05-12T22:20:23.923Z,5.47
2019-05-12T22:24:37.290Z,6.00
2019-05-12T22:28:46.693Z,6.17
2019-05-12T22:32:51.279Z,6.07
2019-05-12T22:36:59.516Z,6.80
2019-05-12T22:41:08.993Z,6.50
2019-05-12T22:45:16.933Z,5.43
2019-05-12T22:49:25.206Z,6.17
2019-05-12T22:53:32.867Z,5.33
2019-05-12T22:57:40.709Z,6.30
2019-05-12T23:01:48.547Z,7.53
2019-05-12T23:06:01.420Z,8.13
2019-05-12T23:10:11.015Z,8.00
2019-05-12T23:14:20.681Z,8.30
2019-05-12T23:18:30.692Z,7.10
2019-05-12T23:22:38.112Z,6.60
2019-05-12T23:26:47.990Z,6.40
2019-05-12T23:30:56.493Z,7.13
2019-05-12T23:35:04.996Z,7.77
2019-05-12T23:39:14.338Z,9.43
2019-05-12T23:43:23.794Z,12.23
2019-05-12T23:47:34.335Z,10.80
2019-05-12T23:51:43.882Z,11.13
2019-05-12T23:55:51.519Z,11.20
2019-05-12T23:59:59.518Z,12.30
